Time;durP1;ratioP1;P1;durP2;ratioP2;P2;SDS_P1;SDS_P2;PMS_P1;PMS_P2;Temp;Humidity;BMP_temperature;BMP_pressure;BME280_temperature;BME280_humidity;BME280_pressure;Samples;Min_cycle;Max_cycle;Signal;HPM_P1;HPM_P2
2023/07/06 00:01:45;;;;;;;8.87;8.50;;;18.90;93.60;;;;;;4924276;29;20535;-85
2023/07/06 00:04:15;;;;;;;8.70;8.43;;;18.90;95.10;;;;;;4906925;29;21260;-83
2023/07/06 00:06:43;;;;;;;9.03;8.53;;;18.90;97.60;;;;;;4923771;29;20537;-82
2023/07/06 00:09:13;;;;;;;9.40;9.00;;;18.80;97.50;;;;;;4921061;29;20473;-82
2023/07/06 00:11:44;;;;;;;9.27;8.97;;;18.70;97.40;;;;;;4918292;29;20457;-83
2023/07/06 00:14:14;;;;;;;9.60;9.20;;;18.70;96.90;;;;;;4919596;29;20565;-84
2023/07/06 00:16:51;;;;;;;9.03;8.77;;;18.60;97.20;;;;;;4919528;29;20474;-82
2023/07/06 00:19:19;;;;;;;9.20;8.70;;;18.60;98.40;;;;;;4917931;29;20481;-82
2023/07/06 00:21:49;;;;;;;9.20;8.90;;;18.60;99.90;;;;;;4907201;29;20536;-83
2023/07/06 00:24:17;;;;;;;9.23;8.90;;;18.60;99.90;;;;;;4921207;29;20485;-83
2023/07/06 00:26:46;;;;;;;9.10;8.67;;;18.60;99.90;;;;;;4921688;29;20542;-80
2023/07/06 00:29:15;;;;;;;9.27;8.97;;;18.60;99.90;;;;;;4913371;29;20748;-81
2023/07/06 00:31:53;;;;;;;9.77;9.47;;;18.60;99.90;;;;;;4919134;29;20473;-82
2023/07/06 00:34:23;;;;;;;9.60;9.30;;;18.50;99.90;;;;;;4899227;29;20465;-80
2023/07/06 00:36:52;;;;;;;9.53;9.23;;;18.50;99.90;;;;;;4914758;29;20632;-79
2023/07/06 00:39:22;;;;;;;10.30;10.00;;;18.50;99.90;;;;;;4918544;29;20472;-80
2023/07/06 00:41:50;;;;;;;9.93;9.60;;;18.40;99.90;;;;;;4916477;29;20501;-83
2023/07/06 00:44:48;;;;;;;9.47;8.93;;;18.40;99.90;;;;;;4918443;29;20740;-81
2023/07/06 00:47:19;;;;;;;9.23;8.93;;;18.40;99.90;;;;;;4914855;29;20458;-82
2023/07/06 00:49:48;;;;;;;9.60;9.20;;;18.40;99.90;;;;;;4922153;29;20981;-81
2023/07/06 00:52:17;;;;;;;9.73;9.37;;;18.40;99.90;;;;;;4913868;29;20880;-82
2023/07/06 00:54:45;;;;;;;9.40;8.83;;;18.40;99.90;;;;;;4921447;29;21005;-81
2023/07/06 00:57:17;;;;;;;10.10;9.70;;;18.40;99.90;;;;;;4914163;29;20511;-83
2023/07/06 00:59:46;;;;;;;9.93;9.43;;;18.30;99.90;;;;;;4916389;29;20572;-81
2023/07/06 01:02:17;;;;;;;10.40;10.10;;;18.30;99.90;;;;;;4917184;29;20475;-82
2023/07/06 01:04:46;;;;;;;10.30;9.90;;;18.30;99.90;;;;;;4918185;29;20548;-83
2023/07/06 01:07:21;;;;;;;9.80;9.50;;;18.30;99.90;;;;;;4921411;29;20479;-82
2023/07/06 01:09:50;;;;;;;10.13;9.70;;;18.40;99.90;;;;;;4918524;29;20477;-81
2023/07/06 01:12:18;;;;;;;10.27;9.80;;;18.30;99.90;;;;;;4918140;29;20555;-81
2023/07/06 01:14:46;;;;;;;9.90;9.60;;;18.30;99.90;;;;;;4922370;29;20442;-81
2023/07/06 01:17:20;;;;;;;9.77;9.37;;;18.20;99.90;;;;;;4918192;29;20903;-81
2023/07/06 01:20:12;;;;;;;10.40;10.10;;;18.20;99.90;;;;;;4918568;29;20783;-80
2023/07/06 01:23:01;;;;;;;10.40;10.00;;;18.20;99.90;;;;;;4920808;29;20480;-82
2023/07/06 01:25:45;;;;;;;11.10;10.00;;;18.20;99.90;;;;;;4917402;29;20465;-81
2023/07/06 01:28:27;;;;;;;10.50;10.00;;;18.20;99.90;;;;;;4918903;29;20485;-82
2023/07/06 01:31:27;;;;;;;9.90;9.60;;;18.20;99.90;;;;;;4919227;29;21207;-81
2023/07/06 01:34:02;;;;;;;10.13;9.80;;;18.20;99.90;;;;;;4912378;29;20981;-82
2023/07/06 01:36:35;;;;;;;10.50;10.00;;;18.10;99.90;;;;;;4913996;29;20627;-81
2023/07/06 01:39:17;;;;;;;10.50;10.20;;;18.10;99.90;;;;;;4898006;29;20571;-82
2023/07/06 01:41:46;;;;;;;10.30;9.90;;;18.00;99.90;;;;;;4920270;29;20469;-81
2023/07/06 01:44:16;;;;;;;10.23;9.90;;;17.90;99.90;;;;;;4920503;29;20468;-84
2023/07/06 01:46:51;;;;;;;10.40;10.00;;;17.90;99.90;;;;;;4904024;29;20544;-82
2023/07/06 01:49:19;;;;;;;9.80;9.50;;;17.90;99.90;;;;;;4920793;29;20547;-82
2023/07/06 01:51:55;;;;;;;10.30;10.00;;;17.90;99.90;;;;;;4920184;29;20461;-82
2023/07/06 01:54:30;;;;;;;10.03;9.70;;;17.80;99.90;;;;;;4918101;29;20843;-82
2023/07/06 01:57:04;;;;;;;10.53;10.23;;;17.70;99.90;;;;;;4919599;29;20488;-82
2023/07/06 01:59:35;;;;;;;10.80;10.30;;;17.60;99.90;;;;;;4914342;29;20519;-81
2023/07/06 02:02:07;;;;;;;10.43;10.03;;;17.70;99.90;;;;;;4918120;29;20571;-81
2023/07/06 02:04:43;;;;;;;10.07;9.73;;;17.60;99.90;;;;;;4919367;29;20570;-83
2023/07/06 02:07:12;;;;;;;10.30;10.00;;;17.60;99.90;;;;;;4915858;29;22093;-82
2023/07/06 02:09:44;;;;;;;10.83;10.53;;;17.60;99.90;;;;;;4917449;29;20489;-81
2023/07/06 02:12:13;;;;;;;11.80;11.30;;;17.50;99.90;;;;;;4916354;29;20460;-80
2023/07/06 02:14:42;;;;;;;10.70;10.40;;;17.50;99.90;;;;;;4919186;29;20455;-81
2023/07/06 02:17:12;;;;;;;10.80;10.40;;;17.50;99.90;;;;;;4900188;29;20577;-83
2023/07/06 02:19:41;;;;;;;10.93;10.53;;;17.50;99.90;;;;;;4916134;29;20473;-81
2023/07/06 02:22:10;;;;;;;11.30;10.80;;;17.40;99.90;;;;;;4902914;29;20472;-82
2023/07/06 02:24:38;;;;;;;11.13;10.80;;;17.40;99.90;;;;;;4919657;29;20548;-83
2023/07/06 02:27:09;;;;;;;11.17;10.73;;;17.30;99.90;;;;;;4918001;29;20473;-84
2023/07/06 02:29:41;;;;;;;10.63;10.23;;;17.30;99.90;;;;;;4914235;29;20585;-82
2023/07/06 02:32:10;;;;;;;11.40;10.83;;;17.30;99.90;;;;;;4914386;29;20472;-83
2023/07/06 02:34:40;;;;;;;11.50;10.93;;;17.20;99.90;;;;;;4916512;29;20568;-82
2023/07/06 02:37:09;;;;;;;10.57;10.27;;;17.20;99.90;;;;;;4917454;29;20480;-80
2023/07/06 02:39:37;;;;;;;10.10;9.70;;;17.20;99.90;;;;;;4920825;29;20484;-82
2023/07/06 02:42:05;;;;;;;10.80;10.40;;;17.20;99.90;;;;;;4913223;29;20461;-82
2023/07/06 02:44:33;;;;;;;11.10;10.60;;;17.10;99.90;;;;;;4912223;29;20480;-83
2023/07/06 02:47:01;;;;;;;10.53;10.13;;;17.00;99.90;;;;;;4914467;29;20452;-81
2023/07/06 02:49:30;;;;;;;10.73;10.30;;;17.10;99.90;;;;;;4916424;29;20480;-84
2023/07/06 02:52:01;;;;;;;10.43;10.03;;;17.10;99.90;;;;;;4917305;29;20518;-80
2023/07/06 02:54:30;;;;;;;10.20;9.90;;;17.10;99.90;;;;;;4916575;29;20468;-81
2023/07/06 02:57:00;;;;;;;10.20;9.90;;;17.00;99.90;;;;;;4915079;29;20917;-81
2023/07/06 02:59:29;;;;;;;10.73;10.33;;;17.00;99.90;;;;;;4916816;29;21724;-81
2023/07/06 03:01:58;;;;;;;10.87;10.43;;;17.00;99.90;;;;;;4914978;29;20961;-82
2023/07/06 03:04:27;;;;;;;11.30;10.70;;;17.00;99.90;;;;;;4911857;29;20463;-82
2023/07/06 03:06:56;;;;;;;10.67;10.37;;;17.00;99.90;;;;;;4915998;29;20472;-80
2023/07/06 03:09:26;;;;;;;10.73;10.33;;;17.00;99.90;;;;;;4915866;29;20476;-82
2023/07/06 03:11:54;;;;;;;11.00;10.70;;;17.00;99.90;;;;;;4915573;29;20460;-81
2023/07/06 03:14:25;;;;;;;10.90;10.30;;;17.00;99.90;;;;;;4919756;29;20450;-80
2023/07/06 03:16:54;;;;;;;11.03;10.63;;;17.00;99.90;;;;;;4924742;29;20477;-82
2023/07/06 03:19:22;;;;;;;11.03;10.53;;;17.00;99.90;;;;;;4903636;29;20481;-81
2023/07/06 03:21:52;;;;;;;10.93;10.47;;;16.90;99.90;;;;;;4919549;29;20528;-81
2023/07/06 03:24:20;;;;;;;10.70;10.40;;;16.80;99.90;;;;;;4920895;29;20475;-83
2023/07/06 03:26:52;;;;;;;11.33;10.90;;;16.80;99.90;;;;;;4922631;29;20468;-83
2023/07/06 03:29:21;;;;;;;11.50;11.00;;;16.90;99.90;;;;;;4921534;29;20480;-83
2023/07/06 03:31:49;;;;;;;11.60;11.10;;;16.80;99.90;;;;;;4919113;29;20833;-83
2023/07/06 03:34:18;;;;;;;12.03;11.63;;;16.80;99.90;;;;;;4918034;29;20989;-82
2023/07/06 03:36:46;;;;;;;11.20;10.80;;;16.70;99.90;;;;;;4909046;29;20983;-83
2023/07/06 03:39:15;;;;;;;11.30;10.80;;;16.70;99.90;;;;;;4917133;29;20502;-83
2023/07/06 03:41:43;;;;;;;11.33;10.73;;;16.70;99.90;;;;;;4903839;29;20543;-83
2023/07/06 03:44:13;;;;;;;11.20;10.80;;;16.70;99.90;;;;;;4919006;29;20473;-82
2023/07/06 03:46:42;;;;;;;11.00;10.60;;;16.70;99.90;;;;;;4919368;29;21053;-83
2023/07/06 03:49:12;;;;;;;10.97;10.47;;;16.70;99.90;;;;;;4917573;29;20508;-82
2023/07/06 03:51:45;;;;;;;11.33;10.93;;;16.60;99.90;;;;;;4916568;29;21048;-82
2023/07/06 03:54:14;;;;;;;11.00;10.50;;;16.60;99.90;;;;;;4918489;29;21042;-83
2023/07/06 03:56:42;;;;;;;11.27;10.87;;;16.60;99.90;;;;;;4919435;29;20460;-82
2023/07/06 03:59:10;;;;;;;10.77;10.27;;;16.60;99.90;;;;;;4919113;29;20500;-84
2023/07/06 04:01:40;;;;;;;11.50;11.00;;;16.60;99.90;;;;;;4889640;29;20537;-82
2023/07/06 04:04:08;;;;;;;11.63;11.10;;;16.20;99.90;;;;;;4915992;29;20541;-81
2023/07/06 04:06:40;;;;;;;11.07;10.67;;;16.40;99.90;;;;;;4916320;29;20489;-81
2023/07/06 04:09:10;;;;;;;10.90;10.60;;;16.50;99.90;;;;;;4917413;29;20477;-83
2023/07/06 04:11:38;;;;;;;10.87;10.57;;;16.50;99.90;;;;;;4914320;29;20453;-83
2023/07/06 04:14:07;;;;;;;11.60;11.20;;;16.50;99.90;;;;;;4917223;29;20480;-82
2023/07/06 04:16:35;;;;;;;11.50;11.00;;;16.50;99.90;;;;;;4914753;29;20534;-80
2023/07/06 04:19:05;;;;;;;11.90;11.40;;;16.60;99.90;;;;;;4916644;29;20485;-80
2023/07/06 04:21:33;;;;;;;11.00;10.60;;;16.60;99.90;;;;;;4917032;29;20459;-80
2023/07/06 04:24:03;;;;;;;11.50;11.10;;;16.60;99.90;;;;;;4919546;29;20549;-81
2023/07/06 04:26:32;;;;;;;11.70;11.30;;;16.60;99.90;;;;;;4915052;29;20483;-83
2023/07/06 04:29:04;;;;;;;11.53;11.10;;;16.60;99.90;;;;;;4917891;29;21078;-82
2023/07/06 04:31:32;;;;;;;11.47;10.97;;;16.60;99.90;;;;;;4915782;29;20461;-83
2023/07/06 04:34:01;;;;;;;11.00;10.60;;;16.50;99.90;;;;;;4915552;29;20550;-80
2023/07/06 04:36:31;;;;;;;12.90;12.30;;;16.60;99.90;;;;;;4911636;29;20884;-80
2023/07/06 04:39:00;;;;;;;11.50;11.00;;;16.60;99.90;;;;;;4919001;29;20499;-80
2023/07/06 04:41:29;;;;;;;12.80;12.13;;;16.60;99.90;;;;;;4904409;29;20468;-82
2023/07/06 04:43:58;;;;;;;12.47;11.97;;;16.60;99.90;;;;;;4917720;29;20471;-82
2023/07/06 04:46:26;;;;;;;12.60;12.03;;;16.70;99.90;;;;;;4916828;29;20471;-80
2023/07/06 04:48:54;;;;;;;11.40;11.00;;;16.70;99.90;;;;;;4903135;29;21166;-80
2023/07/06 04:51:22;;;;;;;12.90;12.20;;;16.80;99.90;;;;;;4917425;29;20748;-79
2023/07/06 04:53:52;;;;;;;13.23;12.73;;;16.80;99.90;;;;;;4918458;29;20455;-81
2023/07/06 04:56:21;;;;;;;12.27;11.67;;;16.90;99.90;;;;;;4917148;29;20465;-80
2023/07/06 04:58:49;;;;;;;12.50;12.00;;;16.90;99.90;;;;;;4913341;29;20497;-72
2023/07/06 05:01:19;;;;;;;12.83;12.23;;;16.90;99.90;;;;;;4907398;29;21013;-76
2023/07/06 05:03:47;;;;;;;12.20;11.50;;;16.90;99.90;;;;;;4916890;29;20892;-74
2023/07/06 05:06:15;;;;;;;13.60;12.90;;;16.80;99.90;;;;;;4916381;29;20455;-74
2023/07/06 05:08:43;;;;;;;13.33;12.73;;;16.90;99.90;;;;;;4917995;29;20475;-70
2023/07/06 05:11:13;;;;;;;13.47;12.87;;;16.90;99.90;;;;;;4914806;29;20472;-70
2023/07/06 05:13:41;;;;;;;12.67;12.17;;;16.90;99.90;;;;;;4915739;29;20464;-73
2023/07/06 05:16:10;;;;;;;12.67;12.17;;;16.90;99.90;;;;;;4917568;29;20903;-71
2023/07/06 05:18:38;;;;;;;11.93;11.53;;;16.90;99.90;;;;;;4916263;29;20520;-72
2023/07/06 05:21:06;;;;;;;12.80;12.30;;;16.90;99.90;;;;;;4915808;29;20457;-72
2023/07/06 05:23:34;;;;;;;12.47;11.73;;;16.90;99.90;;;;;;4917443;29;21075;-73
2023/07/06 05:26:03;;;;;;;14.33;13.40;;;16.90;99.90;;;;;;4916016;29;20564;-70
2023/07/06 05:28:33;;;;;;;12.60;12.03;;;16.90;99.90;;;;;;4909421;29;20447;-73
2023/07/06 05:31:03;;;;;;;13.23;12.50;;;17.00;99.90;;;;;;4915098;29;21009;-71
2023/07/06 05:33:32;;;;;;;13.23;12.53;;;17.10;99.90;;;;;;4914116;29;20512;-71
2023/07/06 05:36:01;;;;;;;12.47;11.87;;;17.20;99.90;;;;;;4908219;29;20453;-72
2023/07/06 05:38:29;;;;;;;12.00;11.60;;;17.20;99.90;;;;;;4910934;29;20470;-73
2023/07/06 05:41:02;;;;;;;13.23;12.60;;;17.20;99.90;;;;;;4916907;29;20994;-72
2023/07/06 05:43:30;;;;;;;12.67;12.17;;;17.30;99.90;;;;;;4914778;29;20468;-81
2023/07/06 05:46:00;;;;;;;13.07;12.47;;;17.40;99.90;;;;;;4919967;29;20453;-81
2023/07/06 05:48:28;;;;;;;12.47;11.93;;;17.50;99.90;;;;;;4920772;29;20555;-80
2023/07/06 05:50:56;;;;;;;12.23;11.73;;;17.60;99.90;;;;;;4919725;29;20464;-81
2023/07/06 05:53:24;;;;;;;12.87;12.37;;;17.60;99.90;;;;;;4918104;29;20463;-81
2023/07/06 05:55:52;;;;;;;13.30;12.60;;;17.70;99.90;;;;;;4918303;29;20457;-80
2023/07/06 05:58:20;;;;;;;11.90;11.50;;;17.70;99.90;;;;;;4919779;29;20475;-79
2023/07/06 06:00:48;;;;;;;12.13;11.53;;;17.80;99.90;;;;;;4917782;29;20489;-78
2023/07/06 06:03:19;;;;;;;12.57;11.97;;;17.90;99.90;;;;;;4908582;29;20470;-81
2023/07/06 06:05:49;;;;;;;12.27;11.67;;;17.90;99.90;;;;;;4916326;29;21023;-81
2023/07/06 06:08:18;;;;;;;12.50;11.90;;;17.90;99.90;;;;;;4913831;29;20915;-78
2023/07/06 06:10:46;;;;;;;11.83;11.33;;;18.00;99.90;;;;;;4918099;29;20482;-80
2023/07/06 06:13:18;;;;;;;12.43;11.73;;;18.10;99.90;;;;;;4911508;29;20481;-81
2023/07/06 06:15:47;;;;;;;12.20;11.70;;;18.20;99.90;;;;;;4917706;29;20469;-80
2023/07/06 06:18:15;;;;;;;18.63;11.50;;;18.20;99.90;;;;;;4916814;29;20555;-80
2023/07/06 06:20:45;;;;;;;12.13;11.53;;;18.30;99.90;;;;;;4910817;29;20888;-81
2023/07/06 06:23:13;;;;;;;11.90;11.50;;;18.30;99.90;;;;;;4919272;29;20886;-79
2023/07/06 06:25:41;;;;;;;11.60;11.20;;;18.30;99.90;;;;;;4918239;29;20504;-81
2023/07/06 06:28:10;;;;;;;11.33;10.93;;;18.40;99.90;;;;;;4916794;29;20563;-80
2023/07/06 06:30:40;;;;;;;12.57;11.90;;;18.50;99.90;;;;;;4914383;29;20485;-80
2023/07/06 06:33:09;;;;;;;12.43;11.73;;;18.50;99.90;;;;;;4906645;29;20513;-80
2023/07/06 06:35:37;;;;;;;12.27;11.57;;;18.50;99.90;;;;;;4906590;29;20483;-80
2023/07/06 06:38:07;;;;;;;11.97;11.33;;;18.60;99.90;;;;;;4918585;29;20464;-80
2023/07/06 06:40:36;;;;;;;11.60;11.10;;;18.60;99.90;;;;;;4921308;29;20904;-80
2023/07/06 06:43:05;;;;;;;12.27;11.30;;;18.60;99.90;;;;;;4920678;29;20845;-81
2023/07/06 06:45:33;;;;;;;11.80;11.20;;;18.60;99.90;;;;;;4917023;29;20505;-79
2023/07/06 06:48:02;;;;;;;12.23;11.70;;;18.70;99.90;;;;;;4898189;29;20533;-80
2023/07/06 06:50:30;;;;;;;11.90;11.37;;;18.60;99.90;;;;;;4918992;29;20477;-80
2023/07/06 06:52:58;;;;;;;12.50;12.00;;;18.80;99.90;;;;;;4905892;29;20461;-81
2023/07/06 06:55:28;;;;;;;11.90;11.50;;;18.90;99.90;;;;;;4922366;29;20483;-80
2023/07/06 06:57:56;;;;;;;11.10;10.70;;;18.90;99.90;;;;;;4920665;29;20457;-80
2023/07/06 07:00:24;;;;;;;11.70;11.10;;;18.90;99.90;;;;;;4923543;29;20490;-80
2023/07/06 07:02:52;;;;;;;11.47;11.00;;;19.00;99.90;;;;;;4925140;29;20974;-80
2023/07/06 07:05:20;;;;;;;11.32;10.82;;;19.00;99.90;;;;;;4915378;29;20523;-80
2023/07/06 07:07:49;;;;;;;12.43;11.80;;;19.10;99.90;;;;;;4918682;29;20205;-80
2023/07/06 07:10:17;;;;;;;11.90;11.40;;;19.30;99.90;;;;;;4918449;29;21001;-81
2023/07/06 07:12:47;;;;;;;10.80;10.40;;;19.30;99.90;;;;;;4920757;29;20462;-80
2023/07/06 07:15:15;;;;;;;11.50;10.90;;;19.30;99.90;;;;;;4906240;29;20461;-81
2023/07/06 07:17:45;;;;;;;11.90;11.40;;;19.40;99.90;;;;;;4910033;29;20472;-79
2023/07/06 07:20:14;;;;;;;11.57;11.07;;;19.40;99.90;;;;;;4916180;29;20856;-80
2023/07/06 07:22:44;;;;;;;11.30;11.00;;;19.40;99.90;;;;;;4917953;29;20564;-79
2023/07/06 07:25:13;;;;;;;11.20;10.83;;;19.50;99.90;;;;;;4917783;29;20560;-78
2023/07/06 07:35:33;;;;;;;10.97;10.50;;;19.70;99.90;;;;;;4777579;29;20506;-80
2023/07/06 07:38:01;;;;;;;10.63;10.30;;;19.70;99.90;;;;;;4777064;29;20479;-81
2023/07/06 07:40:30;;;;;;;11.30;10.90;;;19.90;99.90;;;;;;4794168;29;20586;-80
2023/07/06 07:44:09;;;;;;;10.83;10.47;;;19.90;99.90;;;;;;4866331;29;20470;-80
2023/07/06 07:46:44;;;;;;;10.80;10.50;;;20.00;99.90;;;;;;4816673;29;20484;-78
2023/07/06 07:49:46;;;;;;;11.30;10.87;;;20.10;99.90;;;;;;4904183;23;20532;-80
2023/07/06 07:52:48;;;;;;;10.83;10.47;;;20.00;99.90;;;;;;4928847;29;20457;-79
2023/07/06 07:55:17;;;;;;;11.43;11.00;;;20.10;99.90;;;;;;4929654;29;20459;-79
2023/07/06 07:57:50;;;;;;;11.23;10.73;;;20.10;99.90;;;;;;4933001;29;20970;-80
2023/07/06 08:00:20;;;;;;;10.80;10.50;;;20.10;99.90;;;;;;4904340;29;20778;-80
2023/07/06 08:02:49;;;;;;;11.17;10.77;;;20.20;99.90;;;;;;4906291;29;20671;-78
2023/07/06 08:05:18;;;;;;;10.73;10.40;;;20.20;99.90;;;;;;4906414;29;20454;-79
2023/07/06 08:07:47;;;;;;;10.77;10.40;;;20.30;99.90;;;;;;4890869;29;20521;-80
2023/07/06 08:10:16;;;;;;;11.10;10.50;;;20.40;99.90;;;;;;4907062;29;20999;-80
2023/07/06 08:12:44;;;;;;;10.83;10.53;;;20.50;99.90;;;;;;4911171;29;20475;-79
2023/07/06 08:15:13;;;;;;;10.70;10.20;;;20.50;99.90;;;;;;4907829;29;20486;-81
2023/07/06 08:17:46;;;;;;;10.53;10.03;;;20.60;99.90;;;;;;4906122;29;20477;-81
2023/07/06 08:20:56;;;;;;;10.77;10.47;;;20.80;99.90;;;;;;4905959;29;20474;-79
2023/07/06 08:23:53;;;;;;;11.50;10.93;;;20.80;99.90;;;;;;4903474;29;21018;-80
2023/07/06 08:26:22;;;;;;;10.70;10.40;;;20.80;99.90;;;;;;4909072;29;20532;-80
2023/07/06 08:28:51;;;;;;;10.77;10.37;;;20.70;99.90;;;;;;4907673;29;20486;-81
2023/07/06 08:31:22;;;;;;;11.00;10.23;;;20.80;99.90;;;;;;4910897;29;20457;-80
2023/07/06 08:33:50;;;;;;;10.70;10.40;;;20.80;99.90;;;;;;4909553;29;20454;-80
2023/07/06 08:36:21;;;;;;;10.30;10.00;;;20.80;99.90;;;;;;4904738;29;20942;-81
2023/07/06 08:38:54;;;;;;;10.90;10.50;;;21.00;99.90;;;;;;4903937;29;20491;-81
2023/07/06 08:41:29;;;;;;;11.40;10.80;;;21.00;99.90;;;;;;4893209;29;20481;-80
2023/07/06 08:43:59;;;;;;;10.83;10.37;;;21.00;99.90;;;;;;4907720;29;20465;-80
2023/07/06 08:46:31;;;;;;;10.50;10.20;;;21.10;99.90;;;;;;4901065;29;20544;-79
2023/07/06 08:49:00;;;;;;;10.33;10.03;;;21.10;99.90;;;;;;4907032;29;20485;-80
2023/07/06 08:59:46;;;;;;;11.03;10.73;;;21.40;99.90;;;;;;4866635;29;20569;-80
2023/07/06 09:03:07;;;;;;;12.27;11.80;;;21.60;99.90;;;;;;4904942;29;21114;-79
2023/07/06 09:12:31;;;;;;;10.30;9.90;;;21.60;98.20;;;;;;4986781;23;20940;-80
2023/07/06 09:15:16;;;;;;;10.60;10.30;;;21.60;98.00;;;;;;4863316;29;20487;-81
2023/07/06 09:25:01;;;;;;;10.70;10.20;;;21.70;97.60;;;;;;4811671;29;21051;-80
2023/07/06 09:27:29;;;;;;;10.50;10.10;;;21.60;94.20;;;;;;4921304;29;20467;-81
2023/07/06 09:30:00;;;;;;;9.67;9.40;;;21.60;95.30;;;;;;4922746;29;21071;-81
2023/07/06 09:33:00;;;;;;;9.63;9.10;;;21.60;92.60;;;;;;4926443;29;20829;-80
2023/07/06 09:35:37;;;;;;;10.07;9.67;;;21.60;94.70;;;;;;5108947;27;20644;-81
2023/07/06 09:38:06;;;;;;;9.73;9.23;;;21.70;93.90;;;;;;5104925;28;20493;-82
2023/07/06 09:40:35;;;;;;;9.50;9.20;;;21.70;92.40;;;;;;5104642;28;22509;-79
2023/07/06 09:43:03;;;;;;;9.93;9.53;;;21.80;92.50;;;;;;5105053;28;20828;-81
2023/07/06 09:45:34;;;;;;;10.00;9.57;;;21.90;93.60;;;;;;5103989;28;20452;-81
2023/07/06 09:48:07;;;;;;;10.00;9.53;;;22.00;93.70;;;;;;5107462;28;20543;-80
2023/07/06 09:50:40;;;;;;;9.93;9.60;;;22.10;93.90;;;;;;5106387;28;20576;-81
2023/07/06 09:53:20;;;;;;;9.87;9.50;;;22.20;94.20;;;;;;5101992;28;20512;-80
2023/07/06 09:55:48;;;;;;;9.43;9.13;;;22.20;92.20;;;;;;5104382;28;20471;-80
2023/07/06 09:58:23;;;;;;;9.73;9.43;;;22.10;91.10;;;;;;5101985;28;20771;-82
2023/07/06 10:00:58;;;;;;;10.67;9.30;;;22.10;92.50;;;;;;5094549;28;21019;-80
2023/07/06 10:03:38;;;;;;;9.30;9.00;;;22.10;91.80;;;;;;5101672;28;21020;-81
2023/07/06 10:06:19;;;;;;;9.90;9.50;;;22.10;91.30;;;;;;5103162;28;21017;-80
2023/07/06 10:08:54;;;;;;;10.27;9.70;;;22.10;91.30;;;;;;5102514;28;20466;-81
2023/07/06 10:11:29;;;;;;;9.30;8.90;;;22.10;92.20;;;;;;5100016;28;20673;-79
2023/07/06 10:14:03;;;;;;;10.00;9.60;;;22.10;91.50;;;;;;5104020;28;20485;-80
2023/07/06 10:16:43;;;;;;;9.87;9.40;;;22.10;92.30;;;;;;5101877;28;20451;-81
2023/07/06 10:19:29;;;;;;;10.23;9.83;;;22.20;93.70;;;;;;5106581;28;20636;-81
2023/07/06 10:22:12;;;;;;;9.63;9.23;;;22.30;92.30;;;;;;5097333;28;20452;-80
2023/07/06 10:24:48;;;;;;;9.50;9.13;;;22.30;92.40;;;;;;5104228;28;20490;-80
2023/07/06 10:27:21;;;;;;;9.40;9.10;;;22.30;90.20;;;;;;5099783;28;20465;-81
2023/07/06 10:30:45;;;;;;;9.07;8.80;;;22.30;90.90;;;;;;5092044;28;20682;-80
2023/07/06 10:33:18;;;;;;;9.57;9.17;;;22.30;90.70;;;;;;5059117;28;20490;-81
2023/07/06 10:35:50;;;;;;;9.33;8.90;;;22.40;90.80;;;;;;5101044;28;20850;-80
2023/07/06 10:38:20;;;;;;;9.10;8.80;;;22.40;87.00;;;;;;5102024;28;20650;-80
2023/07/06 10:40:52;;;;;;;9.23;8.93;;;22.40;90.00;;;;;;5101735;28;20819;-80
2023/07/06 10:43:23;;;;;;;8.80;8.60;;;22.50;98.60;;;;;;5094679;28;20461;-81
2023/07/06 10:45:52;;;;;;;9.83;9.43;;;22.50;91.10;;;;;;5091969;28;20458;-80
2023/07/06 10:48:32;;;;;;;10.00;9.60;;;22.60;90.30;;;;;;5087070;28;20464;-81
2023/07/06 10:51:22;;;;;;;10.03;9.70;;;22.70;92.80;;;;;;5090214;28;20445;-80
2023/07/06 10:54:10;;;;;;;10.50;10.10;;;22.70;94.20;;;;;;5075729;28;20453;-80
2023/07/06 10:56:45;;;;;;;10.53;9.93;;;22.80;93.80;;;;;;5090533;28;20508;-80
2023/07/06 10:59:18;;;;;;;10.30;9.80;;;22.90;94.80;;;;;;5080869;28;20488;-81
2023/07/06 11:01:47;;;;;;;11.30;10.80;;;23.00;96.20;;;;;;5089998;28;20456;-81
2023/07/06 11:04:57;;;;;;;10.90;10.37;;;23.00;96.60;;;;;;5090454;28;20458;-81
2023/07/06 11:07:42;;;;;;;10.43;10.03;;;23.10;97.40;;;;;;5022747;28;20461;-80
2023/07/06 11:10:24;;;;;;;11.27;10.87;;;23.10;98.20;;;;;;5021049;28;20494;-79
2023/07/06 11:12:55;;;;;;;10.93;10.23;;;23.10;96.50;;;;;;5061709;28;20469;-80
2023/07/06 11:15:26;;;;;;;10.53;10.13;;;23.10;93.70;;;;;;5090555;28;20501;-81
2023/07/06 11:17:56;;;;;;;10.67;10.27;;;23.10;95.00;;;;;;5082243;28;20477;-80
2023/07/06 11:20:26;;;;;;;10.80;10.20;;;23.10;97.60;;;;;;5087943;28;20481;-81
2023/07/06 11:22:59;;;;;;;10.50;10.10;;;23.20;98.60;;;;;;5090082;28;20454;-80
2023/07/06 11:25:31;;;;;;;10.47;9.97;;;23.20;95.70;;;;;;5087522;28;20450;-80
2023/07/06 11:28:05;;;;;;;9.80;9.40;;;23.20;95.20;;;;;;5083388;28;20887;-80
2023/07/06 11:30:39;;;;;;;9.80;9.47;;;23.20;97.60;;;;;;5087849;28;20463;-81
2023/07/06 11:33:15;;;;;;;10.27;9.90;;;23.20;96.10;;;;;;5089169;28;20462;-81
2023/07/06 11:35:59;;;;;;;10.37;9.97;;;23.10;94.20;;;;;;5088225;28;20477;-80
2023/07/06 11:38:42;;;;;;;11.30;10.67;;;23.20;93.30;;;;;;5082813;28;21216;-81
2023/07/06 11:41:42;;;;;;;10.17;9.77;;;23.10;95.80;;;;;;5082358;28;20503;-78
2023/07/06 11:44:31;;;;;;;11.00;10.40;;;23.20;97.10;;;;;;5086189;28;20522;-81
2023/07/06 11:47:19;;;;;;;11.47;10.90;;;23.20;96.20;;;;;;5085040;28;21062;-80
2023/07/06 11:49:48;;;;;;;11.53;10.90;;;23.30;97.60;;;;;;5085964;28;20477;-79
2023/07/06 11:52:20;;;;;;;11.13;10.70;;;23.50;96.30;;;;;;5087826;28;20450;-81
2023/07/06 11:54:54;;;;;;;11.57;11.03;;;23.50;98.20;;;;;;5103726;28;20516;-80
2023/07/06 11:57:28;;;;;;;11.20;10.80;;;23.50;98.70;;;;;;5084525;28;20582;-80
2023/07/06 12:00:32;;;;;;;12.67;11.70;;;23.50;99.90;;;;;;5090112;28;20485;-79
2023/07/06 12:03:03;;;;;;;11.93;11.43;;;23.50;98.90;;;;;;5085469;28;20543;-81
2023/07/06 12:05:36;;;;;;;10.90;10.60;;;23.50;99.90;;;;;;5086794;28;20446;-81
2023/07/06 12:08:14;;;;;;;10.90;10.50;;;23.50;99.90;;;;;;5086397;28;20457;-81
2023/07/06 12:10:48;;;;;;;10.50;10.10;;;23.60;99.90;;;;;;5084220;28;20519;-81
2023/07/06 12:13:25;;;;;;;10.47;10.17;;;23.60;99.90;;;;;;5085000;28;20449;-80
2023/07/06 12:15:57;;;;;;;11.57;11.17;;;23.70;99.90;;;;;;5086310;28;21005;-80
2023/07/06 12:18:26;;;;;;;10.07;9.77;;;23.70;97.70;;;;;;5087770;28;20446;-81
2023/07/06 12:20:56;;;;;;;10.90;10.50;;;23.70;96.50;;;;;;5090663;28;20966;-78
2023/07/06 12:23:24;;;;;;;10.73;10.20;;;23.60;97.20;;;;;;5086079;28;20934;-81
2023/07/06 12:25:54;;;;;;;10.90;10.53;;;23.60;98.30;;;;;;5082251;28;20462;-81
2023/07/06 12:28:29;;;;;;;10.80;10.20;;;23.60;99.00;;;;;;5087575;28;20442;-82
2023/07/06 12:31:03;;;;;;;10.67;10.30;;;23.60;99.60;;;;;;5086352;28;20453;-80
2023/07/06 12:33:33;;;;;;;10.97;10.57;;;23.60;97.90;;;;;;5082673;28;20462;-82
2023/07/06 12:36:03;;;;;;;10.60;10.20;;;23.60;97.90;;;;;;5085505;28;20473;-80
2023/07/06 12:38:35;;;;;;;10.83;10.40;;;23.60;97.00;;;;;;5084740;28;20899;-80
2023/07/06 12:41:19;;;;;;;9.80;9.50;;;23.60;97.30;;;;;;5083131;28;21258;-80
2023/07/06 12:43:50;;;;;;;10.53;10.00;;;23.70;95.20;;;;;;5082480;28;20453;-81
2023/07/06 12:46:21;;;;;;;9.70;9.43;;;23.60;94.60;;;;;;5081204;28;20508;-80
2023/07/06 12:48:53;;;;;;;10.53;10.03;;;23.60;93.90;;;;;;5083050;28;20927;-82
2023/07/06 13:01:17;;;;;;;11.70;11.20;;;23.70;96.80;;;;;;1485836;26;20484;-81
2023/07/06 13:03:51;;;;;;;10.67;10.17;;;23.80;97.90;;;;;;5031409;28;20475;-80
2023/07/06 13:06:21;;;;;;;10.60;10.10;;;23.80;99.10;;;;;;5036842;28;20523;-79
2023/07/06 13:08:53;;;;;;;10.57;10.17;;;23.90;98.00;;;;;;5031951;28;20483;-81
2023/07/06 13:11:22;;;;;;;9.70;9.40;;;23.80;98.70;;;;;;5039143;28;20912;-81
2023/07/06 13:17:15;;;;;;;10.73;10.23;;;23.80;96.60;;;;;;5035812;28;20488;-80
2023/07/06 13:19:45;;;;;;;10.00;9.60;;;23.80;95.70;;;;;;5033397;28;20527;-79
2023/07/06 13:22:14;;;;;;;10.33;9.60;;;23.80;96.50;;;;;;5033798;28;20452;-80
2023/07/06 13:24:42;;;;;;;9.77;9.47;;;23.80;96.00;;;;;;5031392;28;20457;-80
2023/07/06 13:27:14;;;;;;;10.50;9.90;;;23.80;95.90;;;;;;5035010;28;20822;-81
2023/07/06 13:33:41;;;;;;;9.87;9.60;;;23.70;94.30;;;;;;4956988;28;20495;-81
2023/07/06 13:36:14;;;;;;;11.17;10.47;;;23.80;99.90;;;;;;4952956;28;20852;-80
2023/07/06 13:38:43;;;;;;;10.10;9.80;;;23.80;97.40;;;;;;5024120;28;20480;-80
2023/07/06 13:41:16;;;;;;;10.70;10.10;;;23.80;97.90;;;;;;5028372;28;20457;-79
2023/07/06 13:43:46;;;;;;;10.10;9.80;;;23.80;98.40;;;;;;5027519;28;20458;-78
2023/07/06 13:46:17;;;;;;;11.27;10.87;;;23.80;98.70;;;;;;5027269;28;20453;-82